Pagrindinis puslapis
METAR-TAF:

METAR-TAF

Oro uostai :

Kalėdų sala, Australija

platuma: 10-26S, ilguma: 105-41E, Aukštis: 279 m

Dabartinis oras

Ataskaita buvo paskelbta 38 minutes, ne 21:00 UTC
Vėjas 14 kt iš Rytų/Pietryčių
Temperatūra 23°C
Drėgmė 83%
Slėgis 1015 hPa
Matomumas 10 km arba daugiau
Apsiniaukę ne aukštis 1100 ft
Apsiniaukę ne aukštis 3100 ft

METAR: YPXM 172100Z AUTO 12014KT 9999 // OVC011 OVC031 23/20 Q1015

Laikas: 04:38 (21:38 UTC)

Prognozė

Ataskaita buvo paskelbta 4 valandos ir 23 minutes, ne 17:15 UTC
Prognozė galioja nuo 17 metu 18 UTC su 18 metu 18 UTC
Vėjas 16 kt iš Rytų/Pietryčių
Matomumas 10 km arba daugiau
Su prošvaistėmis ne aukštis 1000 ft
lietus
Laikinai
nuo 17 metu 18 UTC su 18 metu 18 UTC
Matomumas: 3000 m
Su prošvaistėmis ne aukštis 500 ft
lietus

TAF: YPXM 171715Z 1718/1818 12016KT 9999 -SHRA BKN010 TEMPO 1718/1818 3000 SHRA BKN005

Orai ataskaitas ir orų prognozės (METAR, TAF).

turimą stotys yra geltonos ir raudonos taškus žemėlapyje.

Perkelti pele per norėdami pamatyti stoties vardą.

Tada spustelėkite, norėdami matyti oro stebėjimo ir prognozės.

Norėdami pakeisti žemėlapį: spustelėkite ant žalios mygtukų su juodo kryžiaus žemyn,; žalią mygtuką su brūkšneliu, jei norite nutolinti; arba žalių rodyklių gretimoms žemėlapius.


METAR-TAF: